New Orleans, LA

5:32 AM CDT on July 28, 2015 (GMT -0500)
Hickory Ridge Estates | | Change Station
CLOSE
Current Station
Personal Weather Station
Location: Harahan, LA
Elevation: 11 ft
Nearby Weather Stations

Elev 11 ft 29.95 °N, 90.20 °W | Updated 0 second ago

Clear
Clear
77.1 °F
Feels Like 78 °F
N
0.0
Wind Variable Wind from WSW
Gusts 0.0 mph

Today
High -- | Low -- °F
--% Chance of Precip.
Yesterday
High -- | Low -- °F
Precip. -- in
6:17 AM 7:56 PM
Waxing Gibbous, 88% visible
Pressure 29.97 in
Visibility 10.0 miles
Clouds Scattered Clouds 25000 ft
Heat Index 78 °F
Dew Point 75 °F
Humidity 94%
Rainfall 0.00 in
Snow Depth Not available.
UV 0 out of 12
Pollen 2.40 out of 12
Air Quality Not available.
Flu Activity Not available.
METAR KMSY 280953Z 32003KT 10SM SCT250 26/23 A2996 RMK AO2 SLP147 T02610233

More Conditions Fewer Conditions

Pressure 29.97 in
Visibility 10.0 miles
Clouds Scattered Clouds 25000 ft
Heat Index 78 °F
Dew Point 75 °F
Humidity 94%
Rainfall 0.00 in
Snow Depth Not available.
UV 0 out of 12
Pollen 2.40 out of 12
Air Quality Not available.
Flu Activity Not available.
METAR KMSY 280953Z 32003KT 10SM SCT250 26/23 A2996 RMK AO2 SLP147 T02610233

More Conditions Fewer Conditions

10-Day Weather Forecast

×

Almanac

Astronomy

Jul. 28, 2015 Rise Set
Actual Time
Civil Twilight
Nautical Twilight
Astronomical Twilight
Moon
Length of Visible Light
Length of Day
Tomorrow will be .
, % of the Moon is Illuminated

Today's Extremes

State Highs State Lows

Community

WunderPhotos

Upload Photos

1,841,800 photos uploaded!

WunderBlogs® & News

Nearby

Air Quality

  Air Quality AQ Index Pollutant
Not available.

Snow Depth

Station Depth Elevation

Earthquake Activity

City Distance Mag. Time & Date
Minimum magnitude displayed is 2.5.

Coastal Water Temperatures

Place Temperature

Stations

Nearby Weather Stations

Station Location Temp. Windchill Dew Point Humidity Wind Precip. Elev Updated Type